Airport View

Enter AWOS ICAO identifier for current METAR.

ex. KFNL

K6L4 171250Z AUTO 00000KT 10SM CLR 02/M04 A3009 RMK AO2

17 Nov 2019 12:50

Frequency: 119.375

Phone: 304-752-0814

Other Area AWOS: KI16 - KCRW - KSJS - KPBX

TAF KCRW 171135Z 1712/1812 00000KT P6SM FEW200 FM180400 00000KT P6SM BKN200